Time;durP1;ratioP1;P1;durP2;ratioP2;P2;SDS_P1;SDS_P2;PMS_P1;PMS_P2;Temp;Humidity;BMP_temperature;BMP_pressure;BME280_temperature;BME280_humidity;BME280_pressure;Samples;Min_cycle;Max_cycle;Signal;HPM_P1;HPM_P2
2021/05/06 00:32:36;;;;;;;0.05;0.00;;;13.00;54.90;;;;;;4970529;28;20049;-80
2021/05/06 00:35:03;;;;;;;10.30;0.40;;;12.90;55.00;;;;;;4971938;28;20046;-79
2021/05/06 00:37:31;;;;;;;0.10;0.03;;;12.90;55.10;;;;;;4954473;28;20427;-79
2021/05/06 00:40:02;;;;;;;1.23;0.17;;;12.90;55.30;;;;;;4969940;28;20064;-79
2021/05/06 00:42:39;;;;;;;0.47;0.08;;;12.90;55.30;;;;;;4954555;28;20027;-79
2021/05/06 01:03:51;;;;;;;0.10;0.10;;;12.80;56.00;;;;;;5012447;28;20125;-80
2021/05/06 01:06:21;;;;;;;6.25;0.45;;;12.80;56.10;;;;;;5012520;28;20521;-80
2021/05/06 01:09:09;;;;;;;0.10;0.00;;;12.80;56.20;;;;;;5009501;28;20506;-79
2021/05/06 01:11:57;;;;;;;1.55;0.17;;;12.80;56.30;;;;;;5013018;28;20026;-80
2021/05/06 01:14:23;;;;;;;0.00;0.00;;;12.80;56.40;;;;;;5009733;28;20091;-79
2021/05/06 01:16:49;;;;;;;0.50;0.20;;;12.80;56.50;;;;;;5022386;28;20038;-79
2021/05/06 01:19:16;;;;;;;13.55;0.30;;;12.80;56.60;;;;;;4994013;28;20064;-79
2021/05/06 01:21:42;;;;;;;0.00;0.00;;;12.70;56.70;;;;;;5010988;28;20030;-79
2021/05/06 01:24:08;;;;;;;0.32;0.20;;;12.60;56.90;;;;;;5011800;28;20046;-78
2021/05/06 01:26:42;;;;;;;0.20;0.10;;;12.60;57.10;;;;;;5011367;28;20054;-78
2021/05/06 01:29:13;;;;;;;0.00;0.00;;;12.60;57.20;;;;;;5009170;28;20042;-79
2021/05/06 01:31:44;;;;;;;0.00;0.00;;;12.50;57.30;;;;;;5008629;28;20030;-79
2021/05/06 01:34:15;;;;;;;0.40;0.10;;;12.50;57.50;;;;;;5010599;28;20041;-79
2021/05/06 01:36:49;;;;;;;0.00;0.00;;;12.40;57.50;;;;;;5010841;28;20816;-80
2021/05/06 01:44:21;;;;;;;0.30;0.10;;;12.20;57.90;;;;;;5010642;28;20033;-80
2021/05/06 02:00:07;;;;;;;0.20;0.10;;;11.90;59.20;;;;;;5013681;28;20033;-79
2021/05/06 02:02:33;;;;;;;0.00;0.00;;;11.90;59.40;;;;;;4988352;28;20050;-80
2021/05/06 02:04:59;;;;;;;0.47;0.20;;;11.80;59.70;;;;;;5015129;28;20053;-80
2021/05/06 02:07:25;;;;;;;0.20;0.10;;;11.70;59.80;;;;;;4986146;28;20041;-80
2021/05/06 02:09:51;;;;;;;0.32;0.32;;;11.70;60.10;;;;;;4991041;28;20502;-79
2021/05/06 02:12:19;;;;;;;0.52;0.15;;;11.60;60.20;;;;;;5012790;28;20041;-80
2021/05/06 02:17:47;;;;;;;;;;;11.60;61.70;;;;;;4989002;28;20034;-79
2021/05/06 02:20:14;;;;;;;0.05;0.05;;;11.50;61.40;;;;;;5000790;28;19924;-80
2021/05/06 02:22:40;;;;;;;0.00;0.00;;;11.50;61.50;;;;;;4990150;28;20034;-79
2021/05/06 02:25:07;;;;;;;1.75;0.00;;;11.40;61.80;;;;;;4973978;28;20046;-79
2021/05/06 02:27:33;;;;;;;0.03;0.00;;;11.40;61.90;;;;;;4987063;28;20038;-79
2021/05/06 02:29:59;;;;;;;0.20;0.17;;;11.30;62.10;;;;;;4985992;28;20043;-79
2021/05/06 02:32:28;;;;;;;0.00;0.00;;;11.30;62.60;;;;;;5007632;28;20052;-79
2021/05/06 02:34:55;;;;;;;0.00;0.00;;;11.20;62.60;;;;;;5007760;28;20531;-79
2021/05/06 02:37:21;;;;;;;7.38;0.28;;;11.20;62.80;;;;;;4992079;28;20108;-80
2021/05/06 02:39:47;;;;;;;0.00;0.00;;;11.20;63.20;;;;;;4990777;28;20050;-80
2021/05/06 02:42:14;;;;;;;0.00;0.00;;;11.10;63.30;;;;;;5007883;28;20050;-80
2021/05/06 02:44:40;;;;;;;0.10;0.10;;;11.10;63.50;;;;;;5021860;28;20214;-79
2021/05/06 02:47:06;;;;;;;0.52;0.00;;;11.10;63.90;;;;;;5008008;28;20042;-79
2021/05/06 02:49:33;;;;;;;0.65;0.10;;;11.00;64.10;;;;;;5008684;28;20058;-79
2021/05/06 02:52:08;;;;;;;5.15;0.30;;;11.00;64.10;;;;;;5012164;28;20280;-80
2021/05/06 02:54:41;;;;;;;1.45;0.17;;;11.00;64.30;;;;;;5010009;28;20045;-80
2021/05/06 03:05:30;;;;;;;4.47;0.15;;;11.10;64.10;;;;;;4959488;28;20516;-79
2021/05/06 03:23:37;;;;;;;0.10;0.00;;;11.00;66.00;;;;;;4957646;28;20046;-80
2021/05/06 03:26:03;;;;;;;0.00;0.00;;;11.00;65.90;;;;;;4970841;28;20087;-80
2021/05/06 03:28:39;;;;;;;0.00;0.00;;;10.90;65.90;;;;;;4969129;28;20069;-81
2021/05/06 03:44:45;;;;;;;1.55;0.10;;;10.90;66.90;;;;;;5009118;28;20038;-81
2021/05/06 04:03:35;;;;;;;0.52;0.25;;;10.80;68.40;;;;;;4998462;28;20041;-81
2021/05/06 04:35:38;;;;;;;0.00;0.00;;;10.90;69.20;;;;;;4977498;28;20065;-82
2021/05/06 04:38:11;;;;;;;0.00;0.00;;;10.90;68.90;;;;;;4972026;28;20384;-83
2021/05/06 04:56:44;;;;;;;0.00;0.00;;;10.90;70.00;;;;;;4955380;28;20047;-83
2021/05/06 05:04:34;;;;;;;0.00;0.00;;;10.90;69.90;;;;;;4973008;28;20139;-83
2021/05/06 05:19:57;;;;;;;0.00;0.00;;;10.90;70.80;;;;;;5014056;28;20045;-79
2021/05/06 05:25:11;;;;;;;0.00;0.00;;;10.90;70.50;;;;;;5011405;28;20037;-81
2021/05/06 05:27:37;;;;;;;0.20;0.00;;;11.00;70.30;;;;;;5010169;28;20041;-82
2021/05/06 05:30:04;;;;;;;0.10;0.00;;;11.00;70.10;;;;;;4993529;28;20148;-85
2021/05/06 05:32:30;;;;;;;0.00;0.00;;;11.10;70.00;;;;;;5025178;28;20042;-83
2021/05/06 05:35:03;;;;;;;0.00;0.00;;;11.10;69.90;;;;;;5010736;28;20057;-83
2021/05/06 05:37:38;;;;;;;0.25;0.00;;;11.20;70.10;;;;;;5011878;28;20022;-84
2021/05/06 05:55:35;;;;;;;0.13;0.10;;;11.30;70.00;;;;;;5012085;28;20053;-84
2021/05/06 05:58:01;;;;;;;0.85;0.00;;;11.30;69.90;;;;;;5011544;28;20038;-84
2021/05/06 06:00:27;;;;;;;0.10;0.00;;;11.40;70.60;;;;;;5009567;28;20022;-82
2021/05/06 06:02:53;;;;;;;0.32;0.10;;;11.40;69.80;;;;;;5011431;28;20018;-83
2021/05/06 06:05:20;;;;;;;0.32;0.10;;;11.50;69.80;;;;;;5025053;28;20061;-82
2021/05/06 06:07:46;;;;;;;0.00;0.00;;;11.50;69.70;;;;;;5009957;28;20037;-84
2021/05/06 06:10:12;;;;;;;0.10;0.10;;;11.60;69.70;;;;;;5025241;28;20036;-84
2021/05/06 06:12:38;;;;;;;0.00;0.00;;;11.60;69.60;;;;;;5009959;28;20502;-80
2021/05/06 06:15:07;;;;;;;0.22;0.10;;;11.60;69.50;;;;;;5011738;28;20041;-82
2021/05/06 06:17:39;;;;;;;0.15;0.00;;;11.60;69.80;;;;;;5009647;28;20041;-81
2021/05/06 06:20:06;;;;;;;0.73;0.20;;;11.70;69.70;;;;;;5008754;28;20026;-84
2021/05/06 06:22:32;;;;;;;0.32;0.08;;;11.70;69.60;;;;;;5009560;28;20474;-83
2021/05/06 06:24:58;;;;;;;0.00;0.00;;;11.80;69.50;;;;;;4995151;28;20049;-82
2021/05/06 06:27:24;;;;;;;0.10;0.03;;;11.80;69.30;;;;;;4991065;28;20037;-81
2021/05/06 06:29:50;;;;;;;0.47;0.00;;;11.90;69.20;;;;;;5012142;28;20060;-82
2021/05/06 06:32:17;;;;;;;0.45;0.10;;;12.00;69.10;;;;;;5007932;28;20038;-82
2021/05/06 06:34:43;;;;;;;0.22;0.15;;;12.00;69.00;;;;;;4991935;28;20126;-83
2021/05/06 06:37:09;;;;;;;0.03;0.00;;;12.10;69.00;;;;;;5031700;28;20395;-82
2021/05/06 06:39:39;;;;;;;0.50;0.10;;;12.20;69.00;;;;;;4991460;28;20038;-82
2021/05/06 06:42:09;;;;;;;0.08;0.00;;;12.20;69.00;;;;;;4993181;28;20046;-82
2021/05/06 06:44:36;;;;;;;0.20;0.10;;;12.30;68.90;;;;;;5029601;28;20454;-82
2021/05/06 06:47:07;;;;;;;0.73;0.20;;;12.30;68.80;;;;;;5034556;28;20042;-83
2021/05/06 06:49:34;;;;;;;2.17;0.20;;;12.40;68.90;;;;;;5007967;28;20117;-84
2021/05/06 06:52:01;;;;;;;0.10;0.00;;;12.40;68.80;;;;;;4977644;28;20486;-84
2021/05/06 06:54:28;;;;;;;0.13;0.10;;;12.40;68.70;;;;;;5009476;28;20479;-84
2021/05/06 06:56:54;;;;;;;0.10;0.05;;;12.40;69.50;;;;;;4994694;28;20030;-81
2021/05/06 06:59:21;;;;;;;0.60;0.20;;;12.50;68.80;;;;;;5010408;28;20038;-83
2021/05/06 07:01:47;;;;;;;0.03;0.00;;;12.50;68.80;;;;;;5008195;28;20387;-85
2021/05/06 07:04:13;;;;;;;0.00;0.00;;;12.60;68.80;;;;;;5009222;28;20042;-86
2021/05/06 07:06:39;;;;;;;0.00;0.00;;;12.60;68.80;;;;;;4992636;28;20471;-83
2021/05/06 07:09:08;;;;;;;0.00;0.00;;;12.60;68.90;;;;;;5009670;28;20033;-86
2021/05/06 07:11:35;;;;;;;0.20;0.10;;;12.70;68.90;;;;;;5011482;28;20041;-86
2021/05/06 07:14:01;;;;;;;0.20;0.15;;;12.70;68.90;;;;;;5004888;28;20038;-85
2021/05/06 07:16:27;;;;;;;0.52;0.00;;;12.70;68.90;;;;;;5008510;28;20053;-81
2021/05/06 07:18:56;;;;;;;0.00;0.00;;;12.80;69.00;;;;;;5010270;28;20022;-82
2021/05/06 07:21:22;;;;;;;0.05;0.00;;;12.80;69.00;;;;;;5009579;28;20033;-81
2021/05/06 07:23:48;;;;;;;0.00;0.00;;;12.80;69.00;;;;;;5039575;28;20026;-82
2021/05/06 07:26:14;;;;;;;0.00;0.00;;;12.90;69.10;;;;;;5008801;28;20030;-82
2021/05/06 07:28:41;;;;;;;0.08;0.00;;;13.00;69.10;;;;;;5008810;28;20037;-83
2021/05/06 07:31:08;;;;;;;0.32;0.05;;;13.00;69.10;;;;;;5008562;28;20065;-81
2021/05/06 07:33:34;;;;;;;1.25;0.20;;;13.10;69.00;;;;;;5029952;28;20372;-82
2021/05/06 07:36:00;;;;;;;0.00;0.00;;;13.10;69.00;;;;;;4994946;28;20053;-81
2021/05/06 07:38:30;;;;;;;0.05;0.00;;;13.20;69.00;;;;;;5028566;28;20041;-79
2021/05/06 07:40:58;;;;;;;0.00;0.00;;;13.20;69.00;;;;;;5004484;28;20396;-79
2021/05/06 07:43:24;;;;;;;0.60;0.05;;;13.30;69.10;;;;;;5022164;28;20053;-81
2021/05/06 07:45:50;;;;;;;0.00;0.00;;;13.30;69.00;;;;;;4997941;28;20046;-89
2021/05/06 07:48:16;;;;;;;0.73;0.10;;;13.40;69.10;;;;;;5012500;28;20049;-81
2021/05/06 07:50:42;;;;;;;1.15;0.00;;;13.50;69.10;;;;;;5014924;28;20030;-81
2021/05/06 07:53:14;;;;;;;0.00;0.00;;;13.50;69.10;;;;;;5010517;28;20042;-80
2021/05/06 07:55:40;;;;;;;0.60;0.05;;;13.60;69.10;;;;;;5010659;28;20049;-80
2021/05/06 07:58:06;;;;;;;0.28;0.00;;;13.60;69.10;;;;;;5008938;28;20038;-81
2021/05/06 08:00:34;;;;;;;0.08;0.00;;;13.70;69.10;;;;;;4993127;28;20033;-79
2021/05/06 08:03:00;;;;;;;0.05;0.00;;;13.70;69.10;;;;;;4998179;28;20042;-81
2021/05/06 08:05:26;;;;;;;0.10;0.00;;;13.80;69.10;;;;;;5002022;28;20130;-81
2021/05/06 08:07:52;;;;;;;0.20;0.00;;;13.90;69.20;;;;;;5026880;28;20023;-82
2021/05/06 08:10:19;;;;;;;1.00;0.30;;;13.90;69.20;;;;;;5014264;28;20487;-82
2021/05/06 08:12:45;;;;;;;0.40;0.20;;;14.00;69.20;;;;;;5013548;28;20034;-80
2021/05/06 08:15:11;;;;;;;0.68;0.20;;;14.00;69.20;;;;;;5011677;28;20045;-80
2021/05/06 08:17:38;;;;;;;0.40;0.22;;;14.10;69.20;;;;;;5025993;28;20053;-82
2021/05/06 08:20:06;;;;;;;0.32;0.10;;;14.10;69.20;;;;;;5010044;28;20046;-81
2021/05/06 08:22:33;;;;;;;0.88;0.00;;;14.20;69.30;;;;;;5011712;28;20395;-81
2021/05/06 08:24:59;;;;;;;1.45;0.82;;;14.20;69.30;;;;;;5012374;28;20042;-82
2021/05/06 08:27:25;;;;;;;4.13;0.13;;;14.20;69.40;;;;;;5011880;28;20672;-80
2021/05/06 08:29:51;;;;;;;0.10;0.00;;;14.30;69.40;;;;;;5015144;28;20033;-80
2021/05/06 08:32:17;;;;;;;0.93;0.10;;;14.30;69.50;;;;;;5011530;28;20041;-82
2021/05/06 08:34:44;;;;;;;0.73;0.10;;;14.30;69.50;;;;;;4995115;28;20050;-81
2021/05/06 08:37:10;;;;;;;0.00;0.00;;;14.30;69.60;;;;;;5012933;28;20045;-81
2021/05/06 08:39:36;;;;;;;0.40;0.20;;;14.30;69.60;;;;;;5013077;28;20034;-81
2021/05/06 08:42:02;;;;;;;0.00;0.00;;;14.30;69.70;;;;;;4995442;28;20072;-81
2021/05/06 08:44:32;;;;;;;0.00;0.00;;;14.30;69.90;;;;;;5024199;28;20053;-82
2021/05/06 08:47:12;;;;;;;0.00;0.00;;;14.30;70.80;;;;;;5011245;28;20045;-81
2021/05/06 08:49:38;;;;;;;0.00;0.00;;;14.30;70.00;;;;;;5011887;28;20030;-82
2021/05/06 08:52:06;;;;;;;0.22;0.05;;;14.30;70.00;;;;;;5011576;28;20399;-82
2021/05/06 08:54:32;;;;;;;0.00;0.00;;;14.30;70.20;;;;;;5011157;28;20033;-81
2021/05/06 08:56:58;;;;;;;0.65;0.20;;;14.30;70.20;;;;;;5012542;28;20037;-81
2021/05/06 08:59:26;;;;;;;0.00;0.00;;;14.40;70.20;;;;;;5013226;28;20046;-81
2021/05/06 09:01:52;;;;;;;0.00;0.00;;;14.40;70.20;;;;;;5010848;28;20041;-82
2021/05/06 09:04:19;;;;;;;0.00;0.00;;;14.40;70.20;;;;;;5011286;28;20021;-82
2021/05/06 09:06:52;;;;;;;0.00;0.00;;;14.40;70.30;;;;;;5012817;28;20387;-81
2021/05/06 09:09:18;;;;;;;0.52;0.38;;;14.40;70.30;;;;;;5012141;28;20029;-81
2021/05/06 09:11:44;;;;;;;0.00;0.00;;;14.50;70.30;;;;;;5027381;28;20096;-81
2021/05/06 09:14:11;;;;;;;0.00;0.00;;;14.50;70.20;;;;;;5008379;28;20052;-81
2021/05/06 09:16:41;;;;;;;0.20;0.10;;;14.60;70.30;;;;;;4992171;28;20430;-81
2021/05/06 09:19:08;;;;;;;3.17;0.00;;;14.70;70.10;;;;;;5029677;28;20509;-80
2021/05/06 09:21:36;;;;;;;0.20;0.10;;;14.80;69.90;;;;;;5009949;28;20033;-81
2021/05/06 09:24:12;;;;;;;0.10;0.00;;;14.90;70.00;;;;;;5011774;28;20487;-81
2021/05/06 09:26:39;;;;;;;0.00;0.00;;;14.90;70.00;;;;;;5029568;28;20380;-81
2021/05/06 09:29:10;;;;;;;0.77;0.30;;;15.00;70.00;;;;;;4988071;28;20042;-81
2021/05/06 09:31:40;;;;;;;0.10;0.00;;;15.00;70.00;;;;;;5005934;28;20034;-80
2021/05/06 09:34:08;;;;;;;0.00;0.00;;;15.00;70.10;;;;;;5010641;28;20034;-81
2021/05/06 09:36:34;;;;;;;0.22;0.05;;;15.00;70.10;;;;;;5009193;28;20410;-81
2021/05/06 09:39:00;;;;;;;0.00;0.00;;;15.00;70.10;;;;;;5011725;28;20022;-82
2021/05/06 09:41:36;;;;;;;0.10;0.00;;;15.00;70.30;;;;;;5031756;28;20509;-82
2021/05/06 09:44:13;;;;;;;1.88;0.10;;;15.00;70.40;;;;;;5031364;28;20027;-81
2021/05/06 09:46:43;;;;;;;0.00;0.00;;;15.00;70.50;;;;;;5008470;28;20030;-81
2021/05/06 09:49:14;;;;;;;0.20;0.10;;;15.00;70.50;;;;;;5010380;28;20030;-82
2021/05/06 09:51:50;;;;;;;0.90;0.00;;;14.90;70.50;;;;;;4995250;28;20026;-81
2021/05/06 09:54:19;;;;;;;0.00;0.00;;;15.00;70.60;;;;;;5010183;28;20510;-81
2021/05/06 09:56:47;;;;;;;0.00;0.00;;;15.00;70.80;;;;;;5024161;28;20041;-81
2021/05/06 09:59:24;;;;;;;0.00;0.00;;;15.10;70.70;;;;;;5010265;28;20022;-81
2021/05/06 10:01:50;;;;;;;0.80;0.52;;;15.30;71.30;;;;;;5008992;28;20037;-80
2021/05/06 10:04:24;;;;;;;0.00;0.00;;;15.50;70.30;;;;;;5010207;28;20022;-80
2021/05/06 10:07:13;;;;;;;0.35;0.17;;;15.60;70.10;;;;;;5009598;28;20026;-80
2021/05/06 10:10:01;;;;;;;0.95;0.20;;;15.80;69.90;;;;;;4997867;28;20022;-80
2021/05/06 10:12:29;;;;;;;5.97;0.32;;;15.90;69.70;;;;;;5026108;28;20028;-80
2021/05/06 10:14:55;;;;;;;0.08;0.00;;;15.90;69.60;;;;;;5011214;28;20021;-80
2021/05/06 10:17:22;;;;;;;0.00;0.00;;;15.90;69.60;;;;;;5012631;28;20058;-80
2021/05/06 10:19:49;;;;;;;0.60;0.10;;;15.90;69.80;;;;;;5004270;28;20026;-80
2021/05/06 10:22:17;;;;;;;1.83;0.52;;;15.90;69.90;;;;;;4992712;28;20057;-82
2021/05/06 10:24:44;;;;;;;1.20;0.20;;;16.00;70.70;;;;;;5009600;28;20391;-81
2021/05/06 10:27:17;;;;;;;0.08;0.00;;;16.00;69.80;;;;;;4976092;28;20053;-81
2021/05/06 10:29:44;;;;;;;9.40;0.10;;;16.00;69.80;;;;;;5012299;28;20048;-81
2021/05/06 10:32:11;;;;;;;9.30;0.10;;;16.10;69.90;;;;;;5009109;28;20034;-81
2021/05/06 10:34:37;;;;;;;0.25;0.03;;;16.20;69.90;;;;;;5009541;28;20475;-82
2021/05/06 10:37:04;;;;;;;5.68;0.52;;;16.20;69.80;;;;;;5008623;28;20042;-82
2021/05/06 10:39:56;;;;;;;1.55;0.35;;;16.30;69.70;;;;;;5009328;28;20033;-81
2021/05/06 10:42:25;;;;;;;9.43;0.30;;;16.30;69.50;;;;;;5006908;28;20053;-82
2021/05/06 10:44:55;;;;;;;4.57;0.00;;;16.30;69.50;;;;;;5008116;28;20038;-81
2021/05/06 10:47:45;;;;;;;1.50;0.20;;;16.30;69.60;;;;;;4992490;28;20041;-82
2021/05/06 10:50:15;;;;;;;0.90;0.43;;;16.20;69.60;;;;;;5010425;28;20037;-81
2021/05/06 10:52:46;;;;;;;0.00;0.00;;;16.20;69.70;;;;;;4990389;28;20563;-79
2021/05/06 10:55:13;;;;;;;0.15;0.10;;;16.10;69.70;;;;;;5008817;28;20034;-78
2021/05/06 10:57:40;;;;;;;1.88;0.10;;;16.10;69.80;;;;;;5001359;28;20034;-82
2021/05/06 11:00:28;;;;;;;2.92;0.35;;;16.10;69.70;;;;;;5007026;28;20029;-80
2021/05/06 11:02:56;;;;;;;1.08;0.20;;;16.20;69.70;;;;;;5007536;28;20042;-80
2021/05/06 11:05:22;;;;;;;0.60;0.00;;;16.20;69.50;;;;;;5003796;28;20045;-79
2021/05/06 11:08:08;;;;;;;5.30;0.40;;;16.30;69.40;;;;;;5009931;28;20037;-79
2021/05/06 11:10:45;;;;;;;1.30;0.52;;;16.40;69.30;;;;;;5007857;28;20450;-79
2021/05/06 11:13:11;;;;;;;0.32;0.00;;;16.50;68.90;;;;;;5009856;28;20040;-80
2021/05/06 11:15:37;;;;;;;6.07;0.10;;;16.70;68.60;;;;;;5007314;28;20487;-78
2021/05/06 11:18:05;;;;;;;7.57;0.20;;;16.90;68.20;;;;;;5009512;28;20038;-79
2021/05/06 11:20:31;;;;;;;14.95;0.38;;;17.10;68.00;;;;;;5028323;28;20045;-78
2021/05/06 11:22:59;;;;;;;2.58;0.20;;;17.30;67.60;;;;;;5005320;28;20479;-78
2021/05/06 11:27:58;;;;;;;1.48;0.80;;;17.60;66.80;;;;;;5013568;28;20754;-78
2021/05/06 11:30:42;;;;;;;1.30;0.10;;;17.60;66.70;;;;;;4992012;28;20045;-78
2021/05/06 11:36:17;;;;;;;3.25;0.15;;;17.60;67.00;;;;;;5010617;28;20046;-79
2021/05/06 11:38:54;;;;;;;2.42;1.38;;;17.70;66.90;;;;;;4969047;28;20038;-79
2021/05/06 11:41:25;;;;;;;0.10;0.03;;;17.90;66.60;;;;;;4967059;28;20038;-78
2021/05/06 11:43:56;;;;;;;0.20;0.10;;;18.10;66.20;;;;;;4966382;28;20061;-78
2021/05/06 11:46:31;;;;;;;;;;;18.20;65.90;;;;;;4953230;28;20524;-78
2021/05/06 11:48:59;;;;;;;0.10;0.10;;;18.30;65.70;;;;;;4953377;28;19924;-78
2021/05/06 11:51:38;;;;;;;0.28;0.00;;;18.50;65.30;;;;;;4935345;28;20035;-78
2021/05/06 11:54:10;;;;;;;3.40;0.20;;;18.60;65.00;;;;;;4968652;28;20066;-78
2021/05/06 11:56:40;;;;;;;0.95;0.25;;;18.70;64.70;;;;;;4951618;28;20042;-78
2021/05/06 11:59:07;;;;;;;3.53;0.30;;;18.60;64.70;;;;;;4932955;28;20042;-78
2021/05/06 12:01:33;;;;;;;0.00;0.00;;;18.60;64.90;;;;;;4968902;28;20051;-78
2021/05/06 12:04:00;;;;;;;0.90;0.13;;;18.70;64.80;;;;;;4937508;28;20034;-78
2021/05/06 12:06:33;;;;;;;4.50;0.32;;;18.70;64.50;;;;;;4966615;28;20042;-78
2021/05/06 12:08:59;;;;;;;2.78;0.10;;;18.90;64.20;;;;;;4954189;28;20043;-78
2021/05/06 12:11:52;;;;;;;0.10;0.00;;;19.10;63.90;;;;;;4966743;28;20027;-79
2021/05/06 12:14:28;;;;;;;0.22;0.00;;;19.20;63.20;;;;;;4975480;28;20425;-79
2021/05/06 12:16:54;;;;;;;3.00;0.15;;;19.30;62.90;;;;;;5036782;28;20061;-79
2021/05/06 12:19:20;;;;;;;0.77;0.13;;;19.30;62.70;;;;;;5006706;28;20038;-78
2021/05/06 12:21:48;;;;;;;2.97;0.20;;;19.20;62.30;;;;;;5008244;28;20026;-79
2021/05/06 12:24:31;;;;;;;3.20;0.75;;;19.10;62.40;;;;;;5009468;28;20026;-78
2021/05/06 12:26:58;;;;;;;0.00;0.00;;;18.90;62.40;;;;;;5024414;28;20039;-79
2021/05/06 12:29:25;;;;;;;1.02;0.45;;;18.90;62.20;;;;;;5032011;28;20037;-79
2021/05/06 12:31:52;;;;;;;0.40;0.08;;;18.90;61.90;;;;;;5005208;28;20045;-79
2021/05/06 12:34:22;;;;;;;0.40;0.20;;;19.00;61.50;;;;;;5012464;28;20021;-80
2021/05/06 12:36:49;;;;;;;1.23;0.65;;;19.20;61.10;;;;;;5011608;28;20047;-79
2021/05/06 12:39:16;;;;;;;0.43;0.00;;;19.20;60.60;;;;;;4995662;28;20021;-79
2021/05/06 12:42:06;;;;;;;0.43;0.30;;;19.30;60.10;;;;;;4993501;28;20092;-79
2021/05/06 12:44:32;;;;;;;6.43;0.32;;;19.30;59.80;;;;;;5010837;28;20490;-79
2021/05/06 12:47:24;;;;;;;6.55;0.20;;;19.30;59.60;;;;;;5011567;28;20080;-79
2021/05/06 12:50:09;;;;;;;5.95;0.50;;;19.40;59.60;;;;;;5012046;28;20027;-79
2021/05/06 12:52:41;;;;;;;0.20;0.10;;;19.50;59.30;;;;;;5009170;28;20499;-79
2021/05/06 12:55:25;;;;;;;0.20;0.00;;;19.60;59.00;;;;;;4993515;28;20038;-79
2021/05/06 12:58:14;;;;;;;7.55;0.75;;;19.60;58.60;;;;;;5010405;28;20495;-80
2021/05/06 13:00:44;;;;;;;7.55;0.15;;;19.70;58.30;;;;;;4995821;28;20061;-79
2021/05/06 13:03:14;;;;;;;0.17;0.17;;;19.60;58.20;;;;;;4994049;28;20467;-79
2021/05/06 13:05:44;;;;;;;0.90;0.52;;;19.60;58.10;;;;;;5031393;28;20277;-78
2021/05/06 13:08:10;;;;;;;0.40;0.25;;;19.50;57.80;;;;;;5009922;28;20026;-79
2021/05/06 13:10:42;;;;;;;0.68;0.20;;;19.50;57.70;;;;;;5010048;28;20045;-78
2021/05/06 13:13:08;;;;;;;;;;;19.60;57.50;;;;;;5022869;28;20488;-79
2021/05/06 13:15:50;;;;;;;0.22;0.03;;;19.70;57.30;;;;;;5011207;28;20375;-79
2021/05/06 13:18:16;;;;;;;1.98;0.25;;;19.70;56.90;;;;;;5010857;28;20037;-78
2021/05/06 13:20:43;;;;;;;1.90;0.00;;;19.80;56.60;;;;;;5024343;28;20033;-79
2021/05/06 13:23:13;;;;;;;6.13;0.32;;;19.80;56.40;;;;;;5010063;28;20034;-79
2021/05/06 13:25:40;;;;;;;0.22;0.03;;;19.80;56.00;;;;;;4992233;28;20052;-79
2021/05/06 13:28:06;;;;;;;0.90;0.10;;;19.80;55.80;;;;;;5011852;28;20478;-79
2021/05/06 13:30:32;;;;;;;2.13;0.22;;;19.90;55.70;;;;;;5008545;28;20034;-79
2021/05/06 13:33:28;;;;;;;0.60;0.20;;;19.90;55.50;;;;;;5011467;28;20036;-80
2021/05/06 13:36:05;;;;;;;2.60;0.10;;;19.90;55.20;;;;;;5000073;28;20153;-81
2021/05/06 13:38:49;;;;;;;4.18;0.65;;;19.80;55.00;;;;;;5010287;28;20034;-79
2021/05/06 13:41:16;;;;;;;0.08;0.03;;;19.90;54.90;;;;;;5010547;28;20046;-82
2021/05/06 13:43:42;;;;;;;2.80;0.17;;;19.80;54.70;;;;;;5007900;28;20030;-80
2021/05/06 13:46:12;;;;;;;0.22;0.15;;;19.90;54.70;;;;;;5009937;28;20045;-78
2021/05/06 13:48:38;;;;;;;0.98;0.08;;;19.90;54.50;;;;;;4991646;28;20045;-81
2021/05/06 13:51:05;;;;;;;2.95;0.60;;;19.90;54.30;;;;;;5012020;28;20029;-81
2021/05/06 13:53:31;;;;;;;1.00;0.25;;;19.90;54.20;;;;;;5021100;28;20045;-80
2021/05/06 13:55:57;;;;;;;10.43;0.85;;;19.90;54.20;;;;;;4977813;28;20041;-81
2021/05/06 13:58:24;;;;;;;1.55;0.40;;;19.80;54.10;;;;;;5010273;28;20034;-81
2021/05/06 14:00:50;;;;;;;6.13;0.20;;;19.70;54.00;;;;;;5007396;28;20395;-80
2021/05/06 14:03:16;;;;;;;0.52;0.30;;;19.70;54.00;;;;;;5009706;28;20030;-80
2021/05/06 14:05:42;;;;;;;0.25;0.03;;;19.70;53.90;;;;;;5039893;28;20026;-80
2021/05/06 14:08:08;;;;;;;7.13;0.93;;;19.70;53.90;;;;;;5010036;28;20026;-80
2021/05/06 14:10:35;;;;;;;0.17;0.00;;;19.70;53.70;;;;;;5009031;28;20035;-80
2021/05/06 14:13:01;;;;;;;1.20;0.30;;;19.80;53.70;;;;;;5009666;28;20026;-83
2021/05/06 14:15:27;;;;;;;1.30;0.35;;;19.90;53.60;;;;;;5002034;28;20398;-79
2021/05/06 14:17:53;;;;;;;4.78;0.10;;;19.90;53.60;;;;;;5011902;28;20188;-79
2021/05/06 14:20:20;;;;;;;4.65;0.30;;;19.90;53.50;;;;;;5010314;28;20042;-79
2021/05/06 14:22:46;;;;;;;0.10;0.00;;;19.80;53.50;;;;;;5029134;28;20499;-80
2021/05/06 14:25:12;;;;;;;0.60;0.15;;;19.70;53.60;;;;;;5008645;28;20033;-80
2021/05/06 14:27:38;;;;;;;5.07;0.17;;;19.60;53.90;;;;;;5010337;28;20447;-79
2021/05/06 14:30:05;;;;;;;1.15;0.38;;;19.60;54.00;;;;;;5008198;28;20038;-80
2021/05/06 14:32:31;;;;;;;0.73;0.20;;;19.60;53.90;;;;;;5010963;28;20027;-79
2021/05/06 14:34:57;;;;;;;0.00;0.00;;;19.70;53.90;;;;;;5007991;28;20046;-81
2021/05/06 14:37:23;;;;;;;0.50;0.00;;;19.60;53.80;;;;;;5037347;28;20034;-80
2021/05/06 14:39:49;;;;;;;1.35;0.20;;;19.60;53.80;;;;;;5008660;28;20026;-79
2021/05/06 14:42:15;;;;;;;3.28;0.32;;;19.60;53.80;;;;;;5008705;28;20479;-79
2021/05/06 14:44:42;;;;;;;0.20;0.20;;;19.70;53.70;;;;;;5012079;28;20034;-80
2021/05/06 14:47:08;;;;;;;0.47;0.30;;;19.70;53.60;;;;;;5009550;28;20491;-80
2021/05/06 14:49:34;;;;;;;1.85;0.40;;;19.60;53.60;;;;;;5007057;28;20383;-81
2021/05/06 14:52:00;;;;;;;0.05;0.00;;;19.60;53.80;;;;;;5008593;28;20040;-79
2021/05/06 14:54:26;;;;;;;0.15;0.05;;;19.50;53.70;;;;;;4984211;28;20042;-79
2021/05/06 14:56:53;;;;;;;1.38;0.30;;;19.50;53.70;;;;;;5007406;28;20573;-79
2021/05/06 14:59:19;;;;;;;1.23;0.35;;;19.40;53.70;;;;;;5036954;28;20040;-81
2021/05/06 15:01:45;;;;;;;2.00;0.38;;;19.40;53.80;;;;;;5002915;28;20415;-80
2021/05/06 15:04:11;;;;;;;1.88;0.17;;;19.30;53.80;;;;;;5008410;28;20018;-80
2021/05/06 15:06:37;;;;;;;14.68;0.73;;;19.30;53.80;;;;;;5008830;28;20402;-79
2021/05/06 15:09:06;;;;;;;3.53;0.40;;;19.10;53.80;;;;;;4992329;28;20049;-80
2021/05/06 15:11:33;;;;;;;2.20;0.20;;;19.10;53.90;;;;;;5015029;28;20030;-79
2021/05/06 15:13:59;;;;;;;1.30;0.10;;;18.90;53.70;;;;;;4990539;28;20033;-80
2021/05/06 15:16:25;;;;;;;1.38;0.10;;;18.90;53.70;;;;;;4973345;28;20046;-79
2021/05/06 15:18:51;;;;;;;0.20;0.08;;;18.90;53.60;;;;;;5031673;28;20023;-79
2021/05/06 15:21:17;;;;;;;2.47;0.25;;;18.90;53.40;;;;;;5008390;28;20515;-80
2021/05/06 15:23:43;;;;;;;0.10;0.03;;;18.90;53.10;;;;;;5009065;28;20026;-80
2021/05/06 15:26:10;;;;;;;0.05;0.00;;;18.90;53.00;;;;;;5006272;28;20376;-80
2021/05/06 15:28:36;;;;;;;1.15;0.13;;;18.90;52.90;;;;;;4991748;28;20037;-80
2021/05/06 15:31:02;;;;;;;0.00;0.00;;;18.90;52.70;;;;;;5028705;28;20486;-79
2021/05/06 15:33:28;;;;;;;3.88;0.40;;;18.90;52.70;;;;;;5008464;28;20030;-79
2021/05/06 15:35:54;;;;;;;0.10;0.00;;;18.90;52.60;;;;;;5009707;28;20071;-80
2021/05/06 15:38:20;;;;;;;11.75;0.77;;;18.90;52.60;;;;;;5036042;28;20312;-80
2021/05/06 15:40:49;;;;;;;0.00;0.00;;;18.80;52.60;;;;;;5006809;28;20364;-79
2021/05/06 15:43:15;;;;;;;0.05;0.00;;;18.80;52.60;;;;;;4991687;28;20050;-80
2021/05/06 15:45:42;;;;;;;3.13;0.40;;;18.80;52.70;;;;;;5008961;28;20030;-80
2021/05/06 15:48:10;;;;;;;0.03;0.00;;;18.70;52.80;;;;;;5009360;28;20026;-78
2021/05/06 15:50:37;;;;;;;0.10;0.10;;;18.70;52.90;;;;;;5039125;28;20034;-79
2021/05/06 15:53:03;;;;;;;0.57;0.30;;;18.60;53.00;;;;;;5008110;28;20050;-79
2021/05/06 15:55:33;;;;;;;0.00;0.00;;;18.50;53.10;;;;;;5008731;28;20037;-79
2021/05/06 15:58:01;;;;;;;0.60;0.30;;;18.50;53.20;;;;;;4990591;28;20045;-80
2021/05/06 16:00:27;;;;;;;3.35;0.90;;;18.50;53.90;;;;;;5010623;28;20034;-80
2021/05/06 16:03:06;;;;;;;5.45;0.20;;;18.40;53.30;;;;;;5013664;28;20387;-79
2021/05/06 16:05:34;;;;;;;0.03;0.00;;;18.40;53.40;;;;;;5024009;28;20372;-80
2021/05/06 16:08:01;;;;;;;0.13;0.10;;;18.30;53.40;;;;;;5017741;28;20035;-80
2021/05/06 16:10:27;;;;;;;1.83;0.00;;;18.30;53.60;;;;;;5031443;28;20022;-80
2021/05/06 16:12:53;;;;;;;1.65;0.75;;;18.30;53.60;;;;;;5012784;28;20031;-79
2021/05/06 16:15:19;;;;;;;0.38;0.05;;;18.30;53.50;;;;;;5011248;28;20030;-80
2021/05/06 16:17:45;;;;;;;4.95;0.65;;;18.40;53.40;;;;;;5038285;28;20398;-79
2021/05/06 16:20:32;;;;;;;2.00;0.00;;;18.40;53.20;;;;;;5010538;28;20030;-79
2021/05/06 16:22:59;;;;;;;0.00;0.00;;;18.50;53.10;;;;;;5011817;28;20049;-80
2021/05/06 16:25:25;;;;;;;1.77;0.00;;;18.50;53.00;;;;;;5010961;28;20025;-81
2021/05/06 16:27:51;;;;;;;1.95;0.20;;;18.50;53.00;;;;;;4993833;28;20034;-81
2021/05/06 16:30:18;;;;;;;0.30;0.10;;;18.50;53.00;;;;;;5012060;28;20030;-82